createdAt,value
2022-11-20T00:03:26.529Z,78.42
2022-11-20T00:07:09.199Z,78.35
2022-11-20T00:10:53.195Z,78.47
2022-11-20T00:14:35.830Z,78.41
2022-11-20T00:18:18.562Z,77.89
2022-11-20T00:22:01.229Z,78.53
2022-11-20T00:25:43.881Z,78.61
2022-11-20T00:29:27.938Z,78.52
2022-11-20T00:33:12.097Z,78.02
2022-11-20T00:36:54.787Z,78.24
2022-11-20T00:40:37.410Z,77.92
2022-11-20T00:44:20.173Z,78.28
2022-11-20T00:48:06.380Z,78.37
2022-11-20T00:51:49.065Z,78.44
2022-11-20T00:55:31.756Z,78.31
2022-11-20T00:59:17.720Z,79.16
2022-11-20T01:03:00.510Z,78.70
2022-11-20T01:06:44.511Z,78.94
2022-11-20T01:10:27.128Z,78.58
2022-11-20T01:14:13.141Z,78.79
2022-11-20T01:17:58.146Z,78.39
2022-11-20T01:21:42.395Z,78.56
2022-11-20T01:25:26.429Z,78.87
2022-11-20T01:29:12.177Z,78.74
2022-11-20T01:32:54.849Z,78.35
2022-11-20T01:36:38.625Z,78.47
2022-11-20T01:40:21.251Z,78.56
2022-11-20T01:44:05.301Z,78.23
2022-11-20T01:47:49.322Z,78.03
2022-11-20T01:51:35.317Z,78.45
2022-11-20T01:55:21.570Z,78.49
2022-11-20T01:59:07.503Z,77.89
2022-11-20T02:02:53.820Z,77.75
2022-11-20T02:06:38.537Z,77.51
2022-11-20T02:10:21.209Z,77.99
2022-11-20T02:14:05.339Z,78.05
2022-11-20T02:17:48.604Z,78.28
2022-11-20T02:21:37.435Z,78.01
2022-11-20T02:25:21.559Z,77.80
2022-11-20T02:29:05.260Z,77.81
2022-11-20T02:32:47.957Z,78.43
2022-11-20T02:36:31.335Z,77.59
2022-11-20T02:40:14.047Z,77.54
2022-11-20T02:43:58.089Z,78.45
2022-11-20T02:47:40.797Z,77.98
2022-11-20T02:51:25.414Z,78.57
2022-11-20T02:55:09.016Z,77.39
2022-11-20T02:58:51.814Z,77.86
2022-11-20T03:02:35.916Z,78.07
2022-11-20T03:06:21.237Z,77.92
2022-11-20T03:10:04.064Z,77.14
2022-11-20T03:13:46.678Z,76.74
2022-11-20T03:17:30.386Z,76.08
2022-11-20T03:21:15.752Z,76.41
2022-11-20T03:24:58.419Z,76.15
2022-11-20T03:28:41.293Z,75.86
2022-11-20T03:32:23.961Z,75.66
2022-11-20T03:36:08.329Z,75.40
2022-11-20T03:39:52.363Z,75.36
2022-11-20T03:43:35.336Z,75.28
2022-11-20T03:47:17.988Z,75.73
2022-11-20T03:51:15.891Z,75.72
2022-11-20T03:54:59.915Z,75.77
2022-11-20T03:58:43.117Z,76.02
2022-11-20T04:02:25.827Z,76.34
2022-11-20T04:06:10.557Z,76.32
2022-11-20T04:09:53.240Z,76.14
2022-11-20T04:13:37.615Z,76.05
2022-11-20T04:17:20.605Z,76.11
2022-11-20T04:21:03.406Z,75.74
2022-11-20T04:24:46.011Z,75.84
2022-11-20T04:28:28.710Z,75.69
2022-11-20T04:32:12.698Z,76.68
2022-11-20T04:35:55.407Z,75.81
2022-11-20T04:39:38.075Z,76.01
2022-11-20T04:43:20.739Z,75.23
2022-11-20T04:47:03.379Z,75.47
2022-11-20T04:50:47.417Z,75.99
2022-11-20T04:54:30.090Z,75.85
2022-11-20T04:58:14.731Z,75.57
2022-11-20T05:01:57.567Z,74.74
2022-11-20T05:05:40.248Z,74.85
2022-11-20T05:09:24.410Z,76.19
2022-11-20T05:13:07.117Z,75.67
2022-11-20T05:16:49.964Z,75.75
2022-11-20T05:20:32.644Z,74.81
2022-11-20T05:24:15.320Z,75.06
2022-11-20T05:27:59.514Z,75.29
2022-11-20T05:31:42.811Z,75.51
2022-11-20T05:35:25.485Z,76.06
2022-11-20T05:39:08.162Z,75.12
2022-11-20T05:42:50.814Z,75.63
2022-11-20T05:46:34.904Z,75.45
2022-11-20T05:50:17.700Z,75.33
2022-11-20T05:54:00.375Z,75.13
2022-11-20T05:57:43.115Z,75.16
2022-11-20T06:01:27.559Z,74.51
2022-11-20T06:05:11.681Z,74.47
2022-11-20T06:08:54.411Z,73.99
2022-11-20T06:12:37.087Z,74.89
2022-11-20T06:16:25.531Z,73.63
2022-11-20T06:20:09.387Z,73.68
2022-11-20T06:23:54.675Z,73.86
2022-11-20T06:27:37.325Z,73.26
2022-11-20T06:31:22.813Z,73.39
2022-11-20T06:35:06.350Z,73.32
2022-11-20T06:38:49.072Z,72.48
2022-11-20T06:42:33.086Z,71.40
2022-11-20T06:46:18.460Z,71.33
2022-11-20T06:50:01.262Z,71.30
2022-11-20T06:53:43.976Z,71.15
2022-11-20T06:57:26.702Z,71.61
2022-11-20T07:01:15.861Z,70.78
2022-11-20T07:04:58.590Z,70.71
2022-11-20T07:08:41.242Z,70.58
2022-11-20T07:12:23.902Z,69.74
2022-11-20T07:16:08.894Z,69.87
2022-11-20T07:19:53.111Z,70.33
2022-11-20T07:23:36.340Z,71.15
2022-11-20T07:27:22.011Z,71.52
2022-11-20T07:31:05.745Z,72.19
2022-11-20T07:34:48.442Z,71.77
2022-11-20T07:38:32.794Z,71.83
2022-11-20T07:42:15.482Z,71.97
2022-11-20T07:45:58.271Z,72.22
2022-11-20T07:49:40.946Z,71.71
2022-11-20T07:53:23.920Z,71.32
2022-11-20T07:57:07.926Z,71.54
2022-11-20T08:00:50.658Z,70.82
2022-11-20T08:04:34.200Z,71.11
2022-11-20T08:08:16.994Z,70.88
2022-11-20T08:12:17.258Z,70.76
2022-11-20T08:16:03.920Z,70.94
2022-11-20T08:19:46.586Z,70.46
2022-11-20T08:23:29.242Z,69.84
2022-11-20T08:27:11.959Z,69.31
2022-11-20T08:31:01.541Z,68.94
2022-11-20T08:34:44.245Z,68.84
2022-11-20T08:38:26.945Z,68.14
2022-11-20T08:42:09.885Z,68.04
2022-11-20T08:45:52.492Z,67.91
2022-11-20T08:49:36.530Z,67.44
2022-11-20T08:53:19.270Z,67.15
2022-11-20T08:57:01.969Z,67.51
2022-11-20T09:00:44.666Z,66.70
2022-11-20T09:04:27.934Z,66.40
2022-11-20T09:08:12.015Z,66.52
2022-11-20T09:11:54.730Z,66.30
2022-11-20T09:15:37.547Z,65.94
2022-11-20T09:19:35.123Z,65.05
2022-11-20T09:23:24.211Z,65.30
2022-11-20T09:27:07.172Z,64.37
2022-11-20T09:30:49.824Z,64.21
2022-11-20T09:34:32.529Z,64.20
2022-11-20T09:38:15.572Z,63.20
2022-11-20T09:42:09.590Z,63.27
2022-11-20T09:46:08.294Z,63.30
2022-11-20T09:50:00.811Z,62.34
2022-11-20T09:53:53.095Z,61.93
2022-11-20T09:57:41.202Z,60.96
2022-11-20T10:01:28.151Z,60.85
2022-11-20T10:05:14.679Z,60.29
2022-11-20T10:09:04.125Z,60.48
2022-11-20T10:12:58.237Z,60.74
2022-11-20T10:16:46.320Z,60.52
2022-11-20T10:20:32.689Z,60.54
2022-11-20T10:24:29.383Z,60.77
2022-11-20T10:28:41.004Z,59.49
2022-11-20T10:32:27.746Z,58.56
2022-11-20T10:36:17.608Z,59.26
2022-11-20T10:40:08.973Z,58.88
2022-11-20T10:43:56.632Z,58.36
2022-11-20T10:47:39.624Z,58.42
2022-11-20T10:51:33.244Z,59.29
2022-11-20T10:55:25.549Z,59.11
2022-11-20T10:59:29.923Z,59.67
2022-11-20T11:03:33.107Z,59.65
2022-11-20T11:07:20.917Z,60.00
2022-11-20T11:11:12.603Z,60.57
2022-11-20T11:14:58.565Z,60.72
2022-11-20T11:18:43.004Z,59.74
2022-11-20T11:22:25.635Z,60.35
2022-11-20T11:26:20.112Z,60.49
2022-11-20T11:30:16.133Z,61.14
2022-11-20T11:34:07.974Z,61.15
2022-11-20T11:37:51.906Z,60.60
2022-11-20T11:41:36.679Z,60.83
2022-11-20T11:45:21.050Z,61.32
2022-11-20T11:49:16.154Z,60.10
2022-11-20T11:53:06.811Z,60.03
2022-11-20T11:56:49.470Z,59.76
2022-11-20T12:00:34.956Z,60.20
2022-11-20T12:04:23.052Z,59.72
2022-11-20T12:08:12.289Z,60.66
2022-11-20T12:11:56.846Z,64.91
2022-11-20T12:15:47.046Z,66.73
2022-11-20T12:19:31.406Z,66.73
2022-11-20T12:23:19.940Z,66.42
2022-11-20T12:27:16.407Z,67.72
2022-11-20T12:31:25.948Z,69.27
2022-11-20T12:35:24.093Z,68.94
2022-11-20T12:39:41.108Z,69.61
2022-11-20T12:43:42.943Z,69.21
2022-11-20T12:47:32.194Z,69.56
2022-11-20T12:51:30.495Z,69.32
2022-11-20T12:55:22.833Z,70.39
2022-11-20T12:59:18.852Z,70.95
2022-11-20T13:03:11.378Z,70.51
2022-11-20T13:06:54.193Z,71.24
2022-11-20T13:10:41.006Z,70.72
2022-11-20T13:14:33.805Z,70.60
2022-11-20T13:18:18.394Z,72.23
2022-11-20T13:22:01.142Z,73.49
2022-11-20T13:25:43.839Z,74.12
2022-11-20T13:29:26.492Z,74.18
2022-11-20T13:33:10.981Z,74.81
2022-11-20T13:36:58.698Z,74.40
2022-11-20T13:40:52.931Z,74.85
2022-11-20T13:44:38.920Z,73.63
2022-11-20T13:48:23.082Z,74.08
2022-11-20T13:52:29.186Z,73.31
2022-11-20T13:56:19.834Z,73.44
2022-11-20T14:00:09.727Z,73.40
2022-11-20T14:04:08.589Z,73.42
2022-11-20T14:07:54.527Z,73.31
2022-11-20T14:11:37.196Z,71.67
2022-11-20T14:15:31.104Z,70.36
2022-11-20T14:19:34.839Z,69.32
2022-11-20T14:23:29.949Z,68.78
2022-11-20T14:27:15.964Z,68.21
2022-11-20T14:30:59.145Z,69.13
2022-11-20T14:34:43.937Z,69.32
2022-11-20T14:38:29.422Z,69.12
2022-11-20T14:42:19.610Z,69.36
2022-11-20T14:46:04.646Z,70.32
2022-11-20T14:49:47.918Z,70.52
2022-11-20T14:53:32.023Z,69.48
2022-11-20T14:57:28.753Z,69.12
2022-11-20T15:01:14.634Z,69.40
2022-11-20T15:05:00.225Z,68.68
2022-11-20T15:08:54.353Z,68.71
2022-11-20T15:12:39.516Z,69.00
2022-11-20T15:16:24.166Z,68.75
2022-11-20T15:20:12.551Z,69.34
2022-11-20T15:23:56.633Z,68.90
2022-11-20T15:27:39.282Z,69.27
2022-11-20T15:31:23.753Z,69.34
2022-11-20T15:35:07.404Z,69.75
2022-11-20T15:38:50.595Z,69.59
2022-11-20T15:42:34.898Z,70.54
2022-11-20T15:46:18.825Z,70.92
2022-11-20T15:50:01.546Z,71.17
2022-11-20T15:53:44.301Z,71.49
2022-11-20T15:57:28.175Z,71.81
2022-11-20T16:01:13.745Z,72.56
2022-11-20T16:04:56.405Z,72.40
2022-11-20T16:08:41.792Z,73.25
2022-11-20T16:12:38.358Z,73.58
2022-11-20T16:16:24.637Z,73.70
2022-11-20T16:20:08.384Z,74.56
2022-11-20T16:23:51.087Z,75.12
2022-11-20T16:27:33.799Z,75.12
2022-11-20T16:31:18.373Z,75.33
2022-11-20T16:35:03.231Z,76.05
2022-11-20T16:38:46.030Z,76.17
2022-11-20T16:42:28.826Z,76.40
2022-11-20T16:46:11.534Z,76.48
2022-11-20T16:49:54.235Z,76.61
2022-11-20T16:53:38.463Z,76.60
2022-11-20T16:57:21.194Z,76.69
2022-11-20T17:01:07.398Z,76.56
2022-11-20T17:04:50.044Z,76.87
2022-11-20T17:08:32.688Z,76.92
2022-11-20T17:12:16.692Z,77.40
2022-11-20T17:16:03.037Z,77.17
2022-11-20T17:19:45.687Z,77.46
2022-11-20T17:23:29.329Z,77.52
2022-11-20T17:27:12.106Z,77.79
2022-11-20T17:31:00.633Z,78.01
2022-11-20T17:34:43.272Z,78.20
2022-11-20T17:38:26.135Z,78.57
2022-11-20T17:42:26.177Z,78.91
2022-11-20T17:46:11.817Z,78.32
2022-11-20T17:49:55.396Z,77.78
2022-11-20T17:53:39.971Z,77.93
2022-11-20T17:57:40.494Z,77.79
2022-11-20T18:01:24.960Z,77.82
2022-11-20T18:05:08.236Z,77.53
2022-11-20T18:08:51.293Z,77.64
2022-11-20T18:12:35.687Z,77.96
2022-11-20T18:16:18.358Z,77.48
2022-11-20T18:24:05.372Z,77.70
2022-11-20T18:27:48.062Z,77.58
2022-11-20T18:31:30.862Z,85.33
2022-11-20T18:35:15.078Z,79.18
2022-11-20T18:38:59.922Z,77.80
2022-11-20T18:43:00.082Z,76.12
2022-11-20T18:46:42.885Z,76.10
2022-11-20T18:50:26.899Z,77.13
2022-11-20T18:54:09.512Z,76.54
2022-11-20T18:57:52.635Z,76.33
2022-11-20T19:01:35.614Z,76.81
2022-11-20T19:05:18.411Z,76.89
2022-11-20T19:09:02.507Z,77.10
2022-11-20T19:12:45.152Z,77.06
2022-11-20T19:16:27.989Z,77.47
2022-11-20T19:20:11.771Z,77.84
2022-11-20T19:23:55.866Z,78.11
2022-11-20T19:27:52.409Z,78.36
2022-11-20T19:31:35.113Z,77.60
2022-11-20T19:35:18.031Z,77.55
2022-11-20T19:39:01.059Z,77.52
2022-11-20T19:42:43.731Z,77.43
2022-11-20T19:46:29.238Z,77.28
2022-11-20T19:50:11.979Z,77.18
2022-11-20T19:53:56.438Z,77.41
2022-11-20T19:57:39.113Z,77.04
2022-11-20T20:01:24.113Z,77.17
2022-11-20T20:05:08.819Z,77.03
2022-11-20T20:08:55.485Z,76.97
2022-11-20T20:12:38.192Z,76.79
2022-11-20T20:16:22.205Z,76.38
2022-11-20T20:20:05.652Z,76.44
2022-11-20T20:23:51.915Z,76.02
2022-11-20T20:27:36.647Z,75.94
2022-11-20T20:31:20.866Z,75.33
2022-11-20T20:35:03.531Z,75.26
2022-11-20T20:38:46.558Z,75.05
2022-11-20T20:42:32.817Z,75.23
2022-11-20T20:46:15.435Z,74.98
2022-11-20T20:49:58.084Z,75.41
2022-11-20T20:53:40.750Z,81.97
2022-11-20T20:57:24.455Z,68.93
2022-11-20T21:01:11.076Z,68.47
2022-11-20T21:04:53.881Z,68.00
2022-11-20T21:08:40.103Z,67.21
2022-11-20T21:12:23.479Z,67.56
2022-11-20T21:16:06.650Z,66.99
2022-11-20T21:19:51.139Z,66.52
2022-11-20T21:23:34.141Z,67.08
2022-11-20T21:27:16.796Z,65.98
2022-11-20T21:31:06.949Z,66.16
2022-11-20T21:34:51.036Z,65.36
2022-11-20T21:38:33.733Z,64.89
2022-11-20T21:42:16.475Z,65.26
2022-11-20T21:46:03.067Z,65.38
2022-11-20T21:49:45.713Z,67.74
2022-11-20T21:53:29.731Z,70.02
2022-11-20T21:57:12.445Z,71.85
2022-11-20T22:00:55.088Z,73.86
2022-11-20T22:04:37.727Z,75.17
2022-11-20T22:08:20.392Z,77.08
2022-11-20T22:12:04.981Z,77.50
2022-11-20T22:16:00.469Z,78.54
2022-11-20T22:19:43.682Z,80.10
2022-11-20T22:23:26.521Z,80.91
2022-11-20T22:27:11.500Z,81.29
2022-11-20T22:30:54.134Z,82.28
2022-11-20T22:34:37.058Z,81.13
2022-11-20T22:38:19.743Z,81.23
2022-11-20T22:42:02.428Z,81.88
2022-11-20T22:45:46.739Z,82.92
2022-11-20T22:49:29.460Z,83.47
2022-11-20T22:53:12.104Z,84.54
2022-11-20T22:56:54.809Z,86.50
2022-11-20T23:00:37.715Z,87.18
2022-11-20T23:04:22.326Z,89.15
2022-11-20T23:08:05.808Z,90.16
2022-11-20T23:11:48.496Z,90.78
2022-11-20T23:15:31.226Z,88.37
2022-11-20T23:19:15.192Z,89.51
2022-11-20T23:22:59.253Z,91.10
2022-11-20T23:26:43.200Z,90.49
2022-11-20T23:30:26.412Z,90.68
2022-11-20T23:34:09.185Z,91.22
2022-11-20T23:37:51.812Z,90.33
2022-11-20T23:41:35.904Z,89.94
2022-11-20T23:45:18.551Z,89.58
2022-11-20T23:49:01.226Z,88.92
2022-11-20T23:52:43.920Z,89.25
2022-11-20T23:56:26.586Z,89.40
